Time;durP1;ratioP1;P1;durP2;ratioP2;P2;SDS_P1;SDS_P2;PMS_P1;PMS_P2;Temp;Humidity;BMP_temperature;BMP_pressure;BME280_temperature;BME280_humidity;BME280_pressure;Samples;Min_cycle;Max_cycle;Signal;HPM_P1;HPM_P2
2024/02/05 00:00:18;;;;;;;12.05;4.35;;;34.50;47.00;;;;;;5064905;28;20282;-72
2024/02/05 00:02:45;;;;;;;13.82;4.75;;;34.40;47.00;;;;;;5054056;28;20176;-72
2024/02/05 00:05:13;;;;;;;10.30;4.43;;;34.40;47.10;;;;;;5056281;28;20266;-71
2024/02/05 00:07:40;;;;;;;12.23;4.03;;;34.50;46.10;;;;;;5069132;28;20642;-71
2024/02/05 00:10:10;;;;;;;13.55;4.25;;;34.40;46.70;;;;;;5057877;28;20184;-72
2024/02/05 00:12:37;;;;;;;9.25;3.75;;;34.50;46.60;;;;;;5057112;28;20268;-73
2024/02/05 00:15:05;;;;;;;10.35;3.65;;;34.70;46.40;;;;;;5057821;28;20179;-72
2024/02/05 00:17:33;;;;;;;10.75;3.70;;;34.70;46.20;;;;;;5059423;28;20274;-73
2024/02/05 00:20:03;;;;;;;9.13;3.67;;;34.80;46.00;;;;;;5055213;28;20606;-72
2024/02/05 00:22:31;;;;;;;10.18;3.63;;;34.80;46.00;;;;;;5073568;28;20218;-71
2024/02/05 00:24:58;;;;;;;6.85;2.75;;;34.40;46.20;;;;;;5068474;28;20188;-72
2024/02/05 00:27:28;;;;;;;6.30;2.55;;;34.40;45.40;;;;;;5070646;28;20207;-71
2024/02/05 00:29:56;;;;;;;7.88;2.80;;;34.70;44.30;;;;;;5066337;28;20194;-71
2024/02/05 00:32:23;;;;;;;9.68;3.67;;;35.00;44.70;;;;;;5069114;28;20223;-73
2024/02/05 00:34:51;;;;;;;8.70;2.95;;;35.30;42.90;;;;;;5065796;28;20230;-72
2024/02/05 00:37:18;;;;;;;5.80;2.80;;;35.20;43.00;;;;;;5065719;28;20190;-73
2024/02/05 00:39:45;;;;;;;8.30;3.63;;;34.80;44.00;;;;;;5068706;28;20644;-76
2024/02/05 00:42:13;;;;;;;7.35;3.13;;;34.40;44.30;;;;;;5073907;28;20266;-71
2024/02/05 00:44:40;;;;;;;8.25;3.03;;;34.30;45.10;;;;;;5071190;28;20179;-71
2024/02/05 00:47:07;;;;;;;10.63;3.20;;;33.90;45.10;;;;;;5066931;28;20910;-72
2024/02/05 00:49:34;;;;;;;7.40;2.70;;;33.80;46.40;;;;;;5061836;28;20220;-72
2024/02/05 00:52:02;;;;;;;6.95;2.78;;;33.80;45.80;;;;;;5069187;28;20643;-74
2024/02/05 00:54:29;;;;;;;12.65;3.78;;;33.80;46.10;;;;;;5066452;28;20210;-73
2024/02/05 00:56:58;;;;;;;8.20;3.22;;;33.40;47.50;;;;;;5064543;28;20187;-73
2024/02/05 00:59:25;;;;;;;13.80;3.20;;;33.40;47.80;;;;;;5072702;28;20183;-73
2024/02/05 01:01:52;;;;;;;13.68;3.00;;;33.50;47.00;;;;;;5065685;28;20183;-72
2024/02/05 01:04:20;;;;;;;11.35;4.15;;;33.30;47.00;;;;;;5064772;28;20187;-72
2024/02/05 01:06:47;;;;;;;17.77;5.30;;;33.30;49.70;;;;;;5067716;28;20227;-73
2024/02/05 01:09:15;;;;;;;14.77;4.90;;;33.10;50.40;;;;;;5068705;28;20183;-72
2024/02/05 01:11:42;;;;;;;14.32;5.38;;;33.40;50.60;;;;;;5064101;28;20234;-74
2024/02/05 01:14:10;;;;;;;22.77;5.85;;;34.10;50.40;;;;;;5069506;28;20265;-73
2024/02/05 01:16:37;;;;;;;14.15;4.70;;;34.90;49.20;;;;;;5067153;28;20187;-77
2024/02/05 01:19:05;;;;;;;20.75;5.22;;;34.80;48.20;;;;;;5065167;28;20182;-73
2024/02/05 01:21:32;;;;;;;15.90;5.22;;;34.30;49.40;;;;;;5063399;28;20180;-73
2024/02/05 01:23:59;;;;;;;15.20;5.65;;;34.10;49.60;;;;;;5062754;28;20282;-72
2024/02/05 01:26:26;;;;;;;15.20;5.40;;;33.70;50.20;;;;;;5061708;28;20176;-72
2024/02/05 01:28:54;;;;;;;14.95;4.93;;;33.50;51.00;;;;;;5065709;28;20186;-71
2024/02/05 01:31:21;;;;;;;15.05;5.03;;;33.40;51.00;;;;;;5065838;28;20189;-73
2024/02/05 01:33:48;;;;;;;16.30;4.50;;;33.50;51.00;;;;;;5069781;28;20187;-72
2024/02/05 01:36:16;;;;;;;15.35;5.07;;;33.30;51.20;;;;;;5061512;28;20226;-72
2024/02/05 01:38:47;;;;;;;17.17;5.07;;;33.30;51.80;;;;;;5069126;28;20179;-73
2024/02/05 01:41:15;;;;;;;15.48;4.72;;;33.20;52.40;;;;;;5062390;28;20180;-72
2024/02/05 01:43:43;;;;;;;16.95;5.35;;;33.20;52.40;;;;;;5063335;28;20180;-71
2024/02/05 01:46:23;;;;;;;17.58;5.22;;;33.30;52.60;;;;;;5070499;28;20193;-71
2024/02/05 01:48:54;;;;;;;16.00;5.25;;;33.20;52.80;;;;;;5068474;28;20199;-70
2024/02/05 01:51:23;;;;;;;13.82;4.90;;;33.00;52.90;;;;;;5068466;28;20248;-72
2024/02/05 01:53:54;;;;;;;21.73;6.53;;;32.90;53.60;;;;;;5055864;28;20183;-72
2024/02/05 01:56:30;;;;;;;21.25;5.93;;;32.80;54.70;;;;;;5056032;28;20661;-72
2024/02/05 01:59:01;;;;;;;21.73;6.65;;;32.70;55.20;;;;;;5063342;28;20187;-72
2024/02/05 02:01:35;;;;;;;14.05;6.53;;;32.40;56.10;;;;;;5073605;28;20539;-77
2024/02/05 02:04:04;;;;;;;20.10;5.57;;;32.20;56.80;;;;;;5070202;28;20248;-72
2024/02/05 02:06:32;;;;;;;26.77;6.88;;;32.10;57.50;;;;;;5072655;28;20543;-71
2024/02/05 02:09:03;;;;;;;22.38;6.63;;;32.20;57.50;;;;;;5073049;28;20240;-73
2024/02/05 02:11:30;;;;;;;23.45;6.85;;;32.20;58.00;;;;;;5072655;28;20248;-72
2024/02/05 02:13:58;;;;;;;20.25;6.28;;;32.00;58.70;;;;;;5072629;28;20626;-73
2024/02/05 02:16:31;;;;;;;24.63;6.85;;;31.90;59.00;;;;;;5072598;28;20636;-71
2024/02/05 02:19:04;;;;;;;27.27;6.32;;;31.70;60.10;;;;;;5065992;28;20657;-72
2024/02/05 02:21:33;;;;;;;19.75;6.32;;;31.70;60.60;;;;;;5059872;28;20233;-72
2024/02/05 02:24:01;;;;;;;17.38;6.40;;;31.80;60.80;;;;;;5072564;28;20179;-72
2024/02/05 02:26:29;;;;;;;26.83;6.85;;;31.80;60.90;;;;;;5073066;28;20182;-73
2024/02/05 02:28:56;;;;;;;26.85;6.50;;;31.50;61.10;;;;;;5064767;28;20650;-73
2024/02/05 02:31:28;;;;;;;22.90;6.93;;;31.50;61.60;;;;;;5065301;28;20261;-73
2024/02/05 02:34:09;;;;;;;21.15;6.43;;;31.70;61.70;;;;;;5072301;28;20183;-73
2024/02/05 02:36:51;;;;;;;17.90;6.20;;;31.60;62.30;;;;;;5072099;28;20226;-72
2024/02/05 02:39:28;;;;;;;21.75;7.55;;;31.50;62.70;;;;;;5072673;28;20187;-73
2024/02/05 02:42:00;;;;;;;27.08;7.30;;;31.40;63.60;;;;;;5072146;28;20191;-71
2024/02/05 02:44:28;;;;;;;24.95;7.22;;;31.40;63.80;;;;;;5069706;28;20263;-71
2024/02/05 02:46:58;;;;;;;24.52;7.35;;;31.40;64.20;;;;;;5058811;28;20183;-72
2024/02/05 02:49:25;;;;;;;24.20;7.30;;;31.40;64.50;;;;;;5070207;28;20657;-71
2024/02/05 02:51:53;;;;;;;25.83;7.53;;;31.50;64.50;;;;;;5063728;28;20210;-73
2024/02/05 02:54:20;;;;;;;24.58;7.80;;;31.50;64.70;;;;;;5064278;28;20183;-73
2024/02/05 02:56:47;;;;;;;23.55;7.07;;;31.50;64.90;;;;;;5067915;28;20653;-72
2024/02/05 02:59:15;;;;;;;24.30;7.53;;;31.60;65.00;;;;;;5068290;28;20279;-73
2024/02/05 03:01:42;;;;;;;18.77;6.70;;;31.80;64.40;;;;;;5064224;28;20175;-73
2024/02/05 03:04:09;;;;;;;27.13;7.40;;;31.80;64.50;;;;;;5064807;28;20175;-73
2024/02/05 03:06:38;;;;;;;22.40;7.13;;;31.80;64.60;;;;;;5059627;28;20304;-72
2024/02/05 03:09:05;;;;;;;28.05;6.80;;;31.80;64.80;;;;;;5057836;28;20210;-73
2024/02/05 03:11:33;;;;;;;27.20;8.15;;;31.70;65.20;;;;;;5069904;28;20203;-72
2024/02/05 03:14:00;;;;;;;28.60;7.28;;;31.50;65.70;;;;;;5064367;28;20242;-72
2024/02/05 03:16:27;;;;;;;25.95;7.75;;;31.40;66.10;;;;;;5063767;28;20266;-72
2024/02/05 03:18:55;;;;;;;27.83;8.75;;;31.30;66.70;;;;;;5064182;28;20229;-73
2024/02/05 03:21:22;;;;;;;22.65;6.82;;;31.00;67.50;;;;;;5069733;28;20167;-72
2024/02/05 03:23:49;;;;;;;29.30;7.47;;;30.80;68.40;;;;;;5067866;28;20649;-73
2024/02/05 03:26:18;;;;;;;27.57;6.87;;;30.80;68.90;;;;;;5069254;28;20179;-73
2024/02/05 03:28:45;;;;;;;26.08;7.82;;;30.80;69.30;;;;;;5066942;28;20219;-72
2024/02/05 03:31:13;;;;;;;22.98;7.00;;;30.80;69.10;;;;;;5060742;28;20183;-71
2024/02/05 03:33:40;;;;;;;27.27;7.20;;;30.70;69.40;;;;;;5069296;28;20196;-72
2024/02/05 03:36:08;;;;;;;32.30;7.47;;;30.60;69.90;;;;;;5067396;28;20223;-72
2024/02/05 03:38:35;;;;;;;28.27;7.95;;;30.70;69.60;;;;;;5059615;28;20186;-73
2024/02/05 03:41:03;;;;;;;28.60;7.65;;;30.80;69.60;;;;;;5072828;28;20375;-72
2024/02/05 03:43:30;;;;;;;27.15;7.05;;;30.80;69.40;;;;;;5072924;28;21194;-73
2024/02/05 03:45:57;;;;;;;28.00;7.32;;;30.70;69.60;;;;;;5065554;28;20195;-72
2024/02/05 03:48:25;;;;;;;31.40;7.55;;;30.70;70.00;;;;;;5061578;28;20176;-72
2024/02/05 03:50:53;;;;;;;26.55;7.05;;;30.80;70.40;;;;;;5067207;28;20252;-74
2024/02/05 03:53:20;;;;;;;28.27;7.10;;;30.90;69.90;;;;;;5067155;28;20218;-73
2024/02/05 03:55:47;;;;;;;30.88;7.55;;;30.80;70.00;;;;;;5070839;28;20267;-74
2024/02/05 03:58:15;;;;;;;31.70;8.07;;;30.80;70.00;;;;;;5062355;28;20273;-72
2024/02/05 04:00:42;;;;;;;30.80;7.55;;;30.90;70.20;;;;;;5069254;28;20223;-72
2024/02/05 04:03:10;;;;;;;26.58;8.07;;;31.20;69.50;;;;;;5071342;28;20191;-76
2024/02/05 04:05:37;;;;;;;28.20;8.13;;;31.30;69.00;;;;;;5062188;28;20192;-73
2024/02/05 04:08:05;;;;;;;31.77;7.35;;;31.50;68.40;;;;;;5062941;28;20191;-73
2024/02/05 04:10:33;;;;;;;26.63;8.07;;;31.70;68.50;;;;;;5073036;28;20183;-72
2024/02/05 04:13:00;;;;;;;29.48;8.18;;;31.80;68.30;;;;;;5070100;28;20230;-74
2024/02/05 04:15:27;;;;;;;32.22;8.40;;;31.70;69.10;;;;;;5061713;28;20215;-73
2024/02/05 04:17:54;;;;;;;27.48;7.20;;;31.60;69.20;;;;;;5065284;28;20200;-73
2024/02/05 04:20:22;;;;;;;32.50;7.72;;;31.70;69.30;;;;;;5068589;28;20225;-73
2024/02/05 04:22:49;;;;;;;30.35;7.82;;;31.60;69.70;;;;;;5067592;28;20180;-73
2024/02/05 04:25:17;;;;;;;31.65;8.20;;;31.70;70.20;;;;;;5068221;28;20211;-73
2024/02/05 04:27:44;;;;;;;30.20;9.02;;;31.90;70.20;;;;;;5070919;28;20183;-73
2024/02/05 04:30:12;;;;;;;34.63;8.77;;;32.00;69.00;;;;;;5068755;28;20183;-71
2024/02/05 04:32:39;;;;;;;25.55;8.18;;;31.90;68.70;;;;;;5070762;28;20235;-73
2024/02/05 04:35:07;;;;;;;25.67;7.90;;;31.70;69.60;;;;;;5068454;28;20390;-73
2024/02/05 04:37:35;;;;;;;30.83;8.48;;;31.70;69.20;;;;;;5069654;28;20657;-75
2024/02/05 04:40:03;;;;;;;31.58;8.85;;;31.60;69.50;;;;;;5068192;28;20645;-74
2024/02/05 04:42:30;;;;;;;27.77;7.90;;;31.40;69.70;;;;;;5068486;28;20191;-72
2024/02/05 04:44:57;;;;;;;27.63;7.57;;;31.30;70.90;;;;;;5069258;28;20217;-72
2024/02/05 04:47:25;;;;;;;30.88;8.32;;;31.60;70.20;;;;;;5069177;28;20640;-73
2024/02/05 04:49:52;;;;;;;28.48;7.63;;;31.60;70.20;;;;;;5060161;28;20191;-72
2024/02/05 04:52:20;;;;;;;31.15;8.90;;;31.50;70.40;;;;;;5066751;28;20203;-73
2024/02/05 04:54:47;;;;;;;28.73;7.45;;;31.30;71.10;;;;;;5068761;28;20186;-72
2024/02/05 04:57:15;;;;;;;27.35;8.05;;;31.10;71.00;;;;;;5066585;28;20183;-72
2024/02/05 04:59:42;;;;;;;28.83;7.80;;;31.10;71.70;;;;;;5068001;28;20194;-74
2024/02/05 05:02:09;;;;;;;30.85;8.23;;;31.00;72.00;;;;;;5065066;28;20202;-73
2024/02/05 05:04:41;;;;;;;29.92;8.07;;;30.80;72.30;;;;;;5069942;28;20175;-72
2024/02/05 05:07:08;;;;;;;33.10;8.52;;;30.60;72.10;;;;;;5070654;28;20253;-72
2024/02/05 05:09:35;;;;;;;30.13;8.07;;;30.40;73.20;;;;;;5068719;28;20179;-72
2024/02/05 05:12:03;;;;;;;32.70;8.73;;;30.30;73.90;;;;;;5068282;28;20272;-72
2024/02/05 05:14:30;;;;;;;36.22;7.72;;;30.20;74.20;;;;;;5065101;28;20207;-73
2024/02/05 05:16:57;;;;;;;27.40;7.65;;;30.00;74.20;;;;;;5062250;28;20187;-72
2024/02/05 05:19:24;;;;;;;31.50;7.90;;;30.00;74.70;;;;;;5061023;28;20641;-73
2024/02/05 05:21:52;;;;;;;30.90;8.07;;;29.90;75.10;;;;;;5070435;28;20179;-72
2024/02/05 05:24:20;;;;;;;30.80;8.70;;;29.70;75.50;;;;;;5065003;28;20276;-72
2024/02/05 05:26:47;;;;;;;34.53;9.15;;;29.80;76.00;;;;;;5057983;28;20650;-73
2024/02/05 05:29:14;;;;;;;28.57;8.40;;;29.70;76.10;;;;;;5066075;28;20280;-71
2024/02/05 05:31:42;;;;;;;26.05;7.82;;;29.60;76.60;;;;;;5068573;28;20229;-72
2024/02/05 05:34:09;;;;;;;33.10;8.33;;;29.60;76.40;;;;;;5067043;28;20544;-73
2024/02/05 05:36:36;;;;;;;31.63;8.30;;;29.50;76.80;;;;;;5067513;28;20297;-72
2024/02/05 05:39:05;;;;;;;32.40;8.73;;;29.40;76.40;;;;;;5070024;28;20552;-73
2024/02/05 05:41:35;;;;;;;32.77;8.53;;;29.30;77.40;;;;;;5067956;28;20274;-73
2024/02/05 05:44:05;;;;;;;27.67;7.80;;;29.40;77.60;;;;;;5069272;28;20276;-73
2024/02/05 05:46:32;;;;;;;29.50;8.73;;;29.40;77.50;;;;;;5063040;28;20585;-72
2024/02/05 05:48:59;;;;;;;35.50;9.40;;;29.40;77.50;;;;;;5066144;28;20536;-73
2024/02/05 05:51:27;;;;;;;28.42;7.85;;;29.40;77.20;;;;;;5068532;28;20188;-72
2024/02/05 05:53:54;;;;;;;30.00;8.47;;;29.40;77.60;;;;;;5070483;28;20194;-72
2024/02/05 05:56:21;;;;;;;31.23;8.77;;;29.40;77.60;;;;;;5065974;28;20194;-73
2024/02/05 05:58:52;;;;;;;36.33;9.17;;;29.30;77.80;;;;;;5057355;28;20186;-73
2024/02/05 06:01:20;;;;;;;34.60;8.90;;;29.20;77.80;;;;;;5067046;28;20219;-72
2024/02/05 06:03:47;;;;;;;34.33;8.30;;;29.10;78.20;;;;;;5066912;28;20189;-72
2024/02/05 06:06:14;;;;;;;40.00;9.30;;;29.30;78.60;;;;;;5065527;28;20179;-73
2024/02/05 06:08:42;;;;;;;38.58;9.23;;;29.40;78.40;;;;;;5062387;28;20192;-73
2024/02/05 06:11:10;;;;;;;32.97;8.90;;;29.40;77.80;;;;;;5069610;28;20528;-72
2024/02/05 06:13:37;;;;;;;30.40;8.98;;;29.50;78.00;;;;;;5065674;28;20215;-72
2024/02/05 06:16:11;;;;;;;41.22;9.23;;;29.50;77.40;;;;;;5062947;28;20195;-72
2024/02/05 06:18:38;;;;;;;31.80;8.55;;;29.50;77.40;;;;;;5067126;28;20191;-72
2024/02/05 06:21:06;;;;;;;30.23;7.70;;;29.40;77.30;;;;;;5061284;28;20281;-73
2024/02/05 06:23:34;;;;;;;28.10;8.00;;;29.60;77.70;;;;;;5062137;28;20257;-74
2024/02/05 06:26:01;;;;;;;36.37;8.43;;;29.50;76.90;;;;;;5065206;28;20240;-72
2024/02/05 06:28:28;;;;;;;30.83;8.18;;;29.30;76.90;;;;;;5075433;28;20626;-72
2024/02/05 06:30:55;;;;;;;29.50;8.00;;;29.30;76.70;;;;;;5070180;28;20199;-73
2024/02/05 06:33:23;;;;;;;33.73;7.87;;;29.20;77.40;;;;;;5073403;28;20685;-72
2024/02/05 06:35:50;;;;;;;34.60;8.20;;;29.20;77.60;;;;;;5071097;28;20223;-72
2024/02/05 06:38:17;;;;;;;31.55;7.85;;;29.10;77.50;;;;;;5069122;28;20191;-72
2024/02/05 06:40:45;;;;;;;36.20;8.80;;;29.10;77.40;;;;;;5071446;28;20184;-72
2024/02/05 06:43:12;;;;;;;36.45;8.57;;;29.10;77.70;;;;;;5069742;28;21116;-72
2024/02/05 06:45:40;;;;;;;38.50;8.57;;;29.00;77.30;;;;;;5074951;28;20181;-72
2024/02/05 06:48:07;;;;;;;38.07;8.27;;;29.00;78.00;;;;;;5072115;28;20190;-71
2024/02/05 06:50:34;;;;;;;35.23;9.47;;;28.90;77.90;;;;;;5071814;28;20312;-71
2024/02/05 06:53:02;;;;;;;32.20;8.17;;;29.00;78.10;;;;;;5070955;28;20199;-72
2024/02/05 06:55:31;;;;;;;37.13;8.30;;;29.00;78.00;;;;;;5070549;28;20183;-71
2024/02/05 06:57:59;;;;;;;32.10;8.50;;;28.90;78.30;;;;;;5070716;28;20186;-72
2024/02/05 07:00:26;;;;;;;35.73;9.23;;;28.90;78.80;;;;;;5075103;28;20221;-72
2024/02/05 07:02:54;;;;;;;41.90;9.13;;;28.80;78.60;;;;;;5071127;28;20202;-71
2024/02/05 07:05:22;;;;;;;28.63;8.40;;;28.70;79.70;;;;;;5072021;28;20237;-73
2024/02/05 07:07:50;;;;;;;33.70;8.53;;;28.80;79.20;;;;;;5075662;28;20179;-73
2024/02/05 07:10:18;;;;;;;35.37;8.93;;;28.80;79.30;;;;;;5065863;28;20222;-71
2024/02/05 07:12:45;;;;;;;31.73;8.40;;;28.70;78.70;;;;;;5071012;28;21381;-72
2024/02/05 07:15:12;;;;;;;35.77;7.57;;;28.70;79.50;;;;;;5071944;28;20228;-72
2024/02/05 07:17:43;;;;;;;35.80;7.60;;;28.80;79.20;;;;;;5078727;28;20183;-72
2024/02/05 07:20:11;;;;;;;35.17;8.17;;;28.60;79.20;;;;;;5075767;28;20544;-73
2024/02/05 07:22:39;;;;;;;38.40;9.20;;;28.40;80.30;;;;;;5075252;28;20599;-71
2024/02/05 07:25:06;;;;;;;33.20;8.73;;;28.40;80.50;;;;;;5075146;28;20179;-71
2024/02/05 07:27:35;;;;;;;39.93;8.77;;;28.40;80.40;;;;;;5072813;28;20190;-71
2024/02/05 07:30:03;;;;;;;36.27;7.97;;;28.40;80.70;;;;;;5065240;28;20183;-72
2024/02/05 07:32:30;;;;;;;30.80;8.10;;;28.40;80.30;;;;;;5062281;28;20199;-73
2024/02/05 07:34:58;;;;;;;32.53;8.60;;;28.40;80.00;;;;;;5074155;28;20215;-72
2024/02/05 07:37:25;;;;;;;26.27;7.27;;;28.40;80.20;;;;;;5075780;28;20187;-71
2024/02/05 07:39:52;;;;;;;42.00;9.77;;;28.30;80.00;;;;;;5073594;28;20179;-72
2024/02/05 07:42:19;;;;;;;33.70;8.73;;;28.30;80.20;;;;;;5067102;28;20184;-71
2024/02/05 07:44:47;;;;;;;38.13;8.67;;;28.20;80.40;;;;;;5061800;28;20645;-72
2024/02/05 07:47:15;;;;;;;35.60;8.67;;;28.10;80.80;;;;;;5068017;28;20658;-71
2024/02/05 07:49:42;;;;;;;35.60;8.37;;;28.00;81.30;;;;;;5063923;28;20180;-73
2024/02/05 07:52:09;;;;;;;37.60;8.67;;;28.00;81.40;;;;;;5074093;28;20245;-71
2024/02/05 07:54:37;;;;;;;27.37;7.53;;;27.90;81.60;;;;;;5074930;28;20171;-72
2024/02/05 07:57:05;;;;;;;36.67;8.17;;;28.00;81.60;;;;;;5074456;28;20206;-71
2024/02/05 07:59:32;;;;;;;38.70;9.20;;;27.90;81.60;;;;;;5072774;28;20175;-72
2024/02/05 08:02:00;;;;;;;32.40;8.50;;;28.00;81.60;;;;;;5075118;28;20554;-71
2024/02/05 08:04:29;;;;;;;34.53;9.40;;;27.90;81.90;;;;;;5073572;28;20210;-72
2024/02/05 08:06:59;;;;;;;34.03;8.43;;;27.90;81.80;;;;;;5065793;28;20191;-71
2024/02/05 08:09:26;;;;;;;34.47;9.37;;;27.80;81.90;;;;;;5075270;28;20175;-71
2024/02/05 08:11:54;;;;;;;34.67;8.00;;;27.80;82.00;;;;;;5074216;28;20203;-72
2024/02/05 08:14:21;;;;;;;40.30;9.60;;;27.80;81.90;;;;;;5075041;28;20183;-73
2024/02/05 08:16:49;;;;;;;30.83;8.10;;;27.80;81.90;;;;;;5074729;28;20177;-72
2024/02/05 08:19:16;;;;;;;34.47;8.93;;;27.90;81.30;;;;;;5075843;28;20172;-73
2024/02/05 08:21:43;;;;;;;31.90;8.47;;;27.90;81.10;;;;;;5082879;28;20182;-72
2024/02/05 08:24:11;;;;;;;33.30;8.30;;;27.80;81.50;;;;;;5081861;28;20200;-72
2024/02/05 08:26:38;;;;;;;35.03;9.10;;;27.80;81.30;;;;;;5069904;28;20284;-71
2024/02/05 08:29:05;;;;;;;32.13;8.20;;;27.80;81.60;;;;;;5070766;28;20172;-72
2024/02/05 08:31:35;;;;;;;26.80;8.13;;;27.70;82.00;;;;;;5071665;28;20183;-72
2024/02/05 08:34:06;;;;;;;38.50;9.27;;;27.70;81.70;;;;;;5073004;28;20182;-71
2024/02/05 08:36:34;;;;;;;31.70;8.37;;;27.70;81.80;;;;;;5070718;28;20221;-72
2024/02/05 08:39:01;;;;;;;38.53;8.63;;;27.70;81.70;;;;;;5073352;28;20191;-72
2024/02/05 08:41:28;;;;;;;31.17;8.03;;;27.60;82.00;;;;;;5069582;28;20245;-71
2024/02/05 08:43:56;;;;;;;29.10;8.60;;;27.60;81.90;;;;;;5074574;28;20167;-72
2024/02/05 08:46:23;;;;;;;28.50;8.50;;;27.60;82.20;;;;;;5074184;28;20201;-72
2024/02/05 08:48:50;;;;;;;30.57;9.07;;;27.60;82.30;;;;;;5065836;28;20183;-71
2024/02/05 08:51:18;;;;;;;33.27;8.30;;;27.60;82.40;;;;;;5074843;28;20549;-71
2024/02/05 08:53:49;;;;;;;34.43;8.87;;;27.50;82.70;;;;;;5076990;28;20559;-71
2024/02/05 08:56:17;;;;;;;48.00;10.17;;;27.50;82.80;;;;;;5073589;28;20254;-71
2024/02/05 08:58:44;;;;;;;37.20;8.57;;;27.40;83.20;;;;;;5069941;28;20336;-71
2024/02/05 09:01:11;;;;;;;35.73;9.53;;;27.50;83.30;;;;;;5072997;28;20232;-71
2024/02/05 09:03:40;;;;;;;39.77;8.90;;;27.30;83.70;;;;;;5073925;28;20671;-72
2024/02/05 09:06:07;;;;;;;38.60;8.93;;;27.30;84.20;;;;;;5074251;28;20236;-72
2024/02/05 09:08:36;;;;;;;33.90;8.93;;;27.30;84.40;;;;;;5071091;28;20175;-72
2024/02/05 09:11:06;;;;;;;40.80;10.93;;;27.20;85.00;;;;;;5073619;28;20260;-72
2024/02/05 09:13:33;;;;;;;36.90;8.40;;;27.10;85.30;;;;;;5074071;28;20696;-72
2024/02/05 09:16:01;;;;;;;33.20;9.10;;;27.10;85.40;;;;;;5073520;28;20514;-72
2024/02/05 09:18:28;;;;;;;45.87;10.03;;;27.00;85.80;;;;;;5072204;28;20186;-73
2024/02/05 09:20:55;;;;;;;44.70;9.63;;;27.00;86.00;;;;;;5072812;28;20281;-72
2024/02/05 09:23:23;;;;;;;43.10;10.83;;;27.10;86.00;;;;;;5074870;28;20172;-73
2024/02/05 09:25:50;;;;;;;40.03;10.13;;;27.00;85.80;;;;;;5074644;28;20633;-72
2024/02/05 09:28:17;;;;;;;39.07;9.67;;;27.00;86.00;;;;;;5073341;28;20187;-71
2024/02/05 09:30:45;;;;;;;42.73;9.67;;;27.00;86.00;;;;;;5070234;28;20175;-71
2024/02/05 09:33:12;;;;;;;41.07;10.20;;;27.00;86.20;;;;;;5073396;28;20280;-72
2024/02/05 09:35:40;;;;;;;36.90;10.13;;;27.00;86.10;;;;;;5073928;28;20219;-72
2024/02/05 09:38:07;;;;;;;36.13;9.93;;;26.90;86.20;;;;;;5072595;28;20186;-72
2024/02/05 09:40:35;;;;;;;41.77;9.47;;;26.90;86.30;;;;;;5073667;28;20187;-72
2024/02/05 09:43:03;;;;;;;37.33;9.87;;;27.00;86.20;;;;;;5069071;28;20180;-72
2024/02/05 09:45:36;;;;;;;41.10;10.13;;;27.00;86.30;;;;;;5073210;28;20180;-72
2024/02/05 09:48:05;;;;;;;45.80;10.93;;;26.90;86.40;;;;;;5070194;28;20186;-71
2024/02/05 09:50:34;;;;;;;45.07;12.00;;;27.00;86.50;;;;;;5073473;28;20167;-72
2024/02/05 09:53:02;;;;;;;43.77;10.83;;;27.00;86.70;;;;;;5072024;28;20234;-72
2024/02/05 09:55:30;;;;;;;48.93;11.83;;;27.00;86.70;;;;;;5073815;28;20625;-72
2024/02/05 09:57:58;;;;;;;50.13;11.80;;;27.00;86.60;;;;;;5070835;28;20268;-71
2024/02/05 10:00:25;;;;;;;39.73;10.20;;;27.00;86.70;;;;;;5070846;28;20180;-71
2024/02/05 10:02:53;;;;;;;44.30;10.27;;;26.90;86.70;;;;;;5073027;28;20203;-71
2024/02/05 10:05:24;;;;;;;43.20;10.57;;;26.90;86.60;;;;;;5072407;28;20175;-71
2024/02/05 10:07:52;;;;;;;45.90;11.43;;;26.90;86.80;;;;;;5081685;28;20270;-71
2024/02/05 10:10:22;;;;;;;45.07;11.47;;;26.90;86.90;;;;;;5073890;28;20213;-71
2024/02/05 10:12:51;;;;;;;38.93;10.47;;;26.90;86.80;;;;;;5073369;28;20221;-71
2024/02/05 10:15:19;;;;;;;48.10;10.83;;;26.90;86.90;;;;;;5073310;28;20589;-71
2024/02/05 10:17:47;;;;;;;45.70;11.30;;;26.90;87.10;;;;;;5072107;28;20194;-71
2024/02/05 10:20:15;;;;;;;40.03;9.90;;;26.90;86.80;;;;;;5072118;28;20541;-71
2024/02/05 10:22:46;;;;;;;48.27;11.77;;;26.80;86.70;;;;;;5079593;28;20190;-71
2024/02/05 10:25:19;;;;;;;52.40;11.87;;;26.80;86.90;;;;;;5072143;28;20202;-71
2024/02/05 10:27:46;;;;;;;41.13;10.37;;;26.80;87.00;;;;;;5069739;28;20656;-71
2024/02/05 10:30:17;;;;;;;49.23;11.40;;;26.80;87.10;;;;;;5067542;28;20594;-71
2024/02/05 10:32:45;;;;;;;40.73;10.90;;;26.80;87.20;;;;;;5073639;28;20222;-71
2024/02/05 10:35:17;;;;;;;48.20;11.50;;;26.80;87.40;;;;;;5072411;28;20211;-70
2024/02/05 10:37:44;;;;;;;53.23;12.10;;;26.80;87.40;;;;;;5073512;28;20223;-71
2024/02/05 10:40:11;;;;;;;51.23;12.30;;;26.80;87.50;;;;;;5075222;28;20163;-71
2024/02/05 10:42:39;;;;;;;49.03;11.60;;;26.80;87.60;;;;;;5074217;28;20179;-71
2024/02/05 10:45:07;;;;;;;43.23;11.27;;;26.80;87.70;;;;;;5075056;28;20186;-71
2024/02/05 10:47:36;;;;;;;39.57;11.60;;;26.80;87.70;;;;;;5068674;28;20236;-70
2024/02/05 10:50:10;;;;;;;43.17;11.23;;;26.80;87.70;;;;;;5071291;28;20242;-71
2024/02/05 10:52:40;;;;;;;46.27;11.03;;;26.70;87.50;;;;;;5073971;28;20210;-73
2024/02/05 10:55:08;;;;;;;46.67;11.40;;;26.70;87.70;;;;;;5072978;28;20305;-72
2024/02/05 10:57:38;;;;;;;41.60;11.57;;;26.70;87.90;;;;;;5070399;28;20187;-73
2024/02/05 11:00:09;;;;;;;48.40;11.83;;;26.60;88.00;;;;;;5070871;28;20186;-71
2024/02/05 11:02:41;;;;;;;51.70;12.23;;;26.60;88.10;;;;;;5078801;28;20179;-71
2024/02/05 11:05:12;;;;;;;47.10;11.37;;;26.70;88.20;;;;;;5072307;28;20187;-72
2024/02/05 11:08:09;;;;;;;48.27;11.23;;;26.60;88.10;;;;;;5068673;28;20199;-71
2024/02/05 11:10:44;;;;;;;44.80;11.80;;;26.60;88.00;;;;;;5055409;28;20187;-72
2024/02/05 11:13:29;;;;;;;46.90;11.77;;;26.60;88.20;;;;;;5072206;28;20685;-72
2024/02/05 11:15:59;;;;;;;49.90;11.77;;;26.50;88.30;;;;;;5068489;28;20175;-72
2024/02/05 11:18:37;;;;;;;40.73;12.43;;;26.50;88.30;;;;;;5071799;28;20202;-71
2024/02/05 11:21:07;;;;;;;44.93;12.50;;;26.40;88.50;;;;;;5071450;28;20187;-73
2024/02/05 11:23:36;;;;;;;42.87;11.40;;;26.50;88.60;;;;;;5075297;28;20643;-71
2024/02/05 11:26:03;;;;;;;47.83;12.90;;;26.40;88.60;;;;;;5071329;28;20269;-72
2024/02/05 11:28:31;;;;;;;52.43;13.00;;;26.40;88.80;;;;;;5068782;28;20172;-72
2024/02/05 11:31:07;;;;;;;47.60;11.70;;;26.40;88.90;;;;;;5071221;28;20175;-71
2024/02/05 11:33:44;;;;;;;48.90;12.77;;;26.50;89.00;;;;;;5069972;28;20218;-70
2024/02/05 11:36:13;;;;;;;54.03;12.37;;;26.40;88.90;;;;;;5071658;28;20273;-70
2024/02/05 11:38:41;;;;;;;49.83;11.77;;;26.40;88.90;;;;;;5071805;28;20179;-71
2024/02/05 11:41:08;;;;;;;53.27;12.53;;;26.30;89.00;;;;;;5071832;28;20195;-71
2024/02/05 11:43:36;;;;;;;53.07;13.93;;;26.30;89.20;;;;;;5071069;28;20195;-70
2024/02/05 11:46:03;;;;;;;41.93;12.00;;;26.40;89.30;;;;;;5072912;28;20187;-71
2024/02/05 11:48:36;;;;;;;58.37;14.37;;;26.40;89.30;;;;;;5075177;28;20199;-71
2024/02/05 11:51:04;;;;;;;56.20;13.23;;;26.40;89.40;;;;;;5069836;28;20233;-71
2024/02/05 11:53:31;;;;;;;54.47;12.83;;;26.40;89.40;;;;;;5069454;28;20215;-71
2024/02/05 11:55:59;;;;;;;46.57;13.00;;;26.40;89.50;;;;;;5068216;28;20198;-72
2024/02/05 11:58:27;;;;;;;49.33;13.17;;;26.30;89.50;;;;;;5069984;28;20555;-72
2024/02/05 12:00:56;;;;;;;47.63;13.40;;;26.40;89.50;;;;;;5066325;28;20262;-71
2024/02/05 12:03:23;;;;;;;51.53;14.77;;;26.40;89.50;;;;;;5074725;28;20270;-71
2024/02/05 12:05:51;;;;;;;42.63;12.83;;;26.30;89.60;;;;;;5075846;28;20237;-71
2024/02/05 12:08:18;;;;;;;43.10;13.30;;;26.40;89.60;;;;;;5074999;28;20205;-71
2024/02/05 12:10:47;;;;;;;53.73;14.20;;;26.40;89.60;;;;;;5073801;28;20283;-71
2024/02/05 12:13:17;;;;;;;51.50;14.10;;;26.40;89.50;;;;;;5075309;28;20882;-71
2024/02/05 12:15:45;;;;;;;52.97;14.13;;;26.30;89.50;;;;;;5078814;28;20267;-71
2024/02/05 12:18:12;;;;;;;49.53;13.93;;;26.40;89.60;;;;;;5075018;28;20673;-71
2024/02/05 12:20:40;;;;;;;49.60;13.50;;;26.40;89.70;;;;;;5074305;28;20263;-71
2024/02/05 12:23:07;;;;;;;58.90;14.67;;;26.40;89.70;;;;;;5074516;28;20190;-72
2024/02/05 12:25:35;;;;;;;61.13;14.70;;;26.40;89.60;;;;;;5074605;28;20186;-71
2024/02/05 12:28:02;;;;;;;50.60;13.90;;;26.40;89.70;;;;;;5069102;28;20191;-71
2024/02/05 12:30:30;;;;;;;49.00;14.17;;;26.40;89.50;;;;;;5071827;28;20269;-71
2024/02/05 12:32:59;;;;;;;52.03;13.97;;;26.40;89.60;;;;;;5074622;28;20287;-71
2024/02/05 12:35:26;;;;;;;48.70;13.80;;;26.40;89.50;;;;;;5074103;28;20364;-71
2024/02/05 12:37:54;;;;;;;41.30;13.27;;;26.40;89.60;;;;;;5074019;28;20232;-72
2024/02/05 12:40:21;;;;;;;44.80;13.27;;;26.40;89.50;;;;;;5074267;28;20179;-72